Time;durP1;ratioP1;P1;durP2;ratioP2;P2;SDS_P1;SDS_P2;PMS_P1;PMS_P2;Temp;Humidity;BMP_temperature;BMP_pressure;BME280_temperature;BME280_humidity;BME280_pressure;Samples;Min_cycle;Max_cycle;Signal;HPM_P1;HPM_P2
2022/11/29 00:01:42;;;;;;;10.27;6.43;;;;;;;7.88;58.14;100990.03;5071526;28;20063;-81
2022/11/29 00:04:10;;;;;;;9.40;6.93;;;;;;;7.89;58.03;100994.50;5069716;28;20049;-83
2022/11/29 00:06:42;;;;;;;11.48;6.47;;;;;;;7.89;58.23;100997.22;5072727;28;20051;-82
2022/11/29 00:09:12;;;;;;;10.25;6.70;;;;;;;7.90;58.30;100993.53;5051470;28;20540;-83
2022/11/29 00:14:28;;;;;;;10.20;6.63;;;;;;;7.88;58.20;100994.63;5056405;28;20395;-83
2022/11/29 00:17:00;;;;;;;9.55;6.07;;;;;;;7.90;58.32;100995.38;5073909;28;20398;-84
2022/11/29 00:19:33;;;;;;;9.23;6.65;;;;;;;7.89;58.61;100991.78;5062759;28;20075;-84
2022/11/29 00:22:03;;;;;;;11.23;6.93;;;;;;;7.88;58.70;100992.75;5070983;28;20392;-83
2022/11/29 00:24:32;;;;;;;9.27;6.40;;;;;;;7.88;57.88;100997.34;5071259;28;20119;-82
2022/11/29 00:27:03;;;;;;;9.30;6.43;;;;;;;7.88;58.39;100989.16;5053800;28;20057;-81
2022/11/29 00:29:33;;;;;;;10.32;6.80;;;;;;;7.88;58.48;100986.44;5059954;28;20425;-85
2022/11/29 00:32:01;;;;;;;9.73;6.47;;;;;;;7.87;58.18;100990.13;5051169;28;20053;-84
2022/11/29 00:34:29;;;;;;;11.40;7.05;;;;;;;7.89;58.36;100996.34;5053672;28;20036;-82
2022/11/29 00:36:57;;;;;;;11.55;7.03;;;;;;;7.87;58.08;100995.59;5070022;28;20051;-82
2022/11/29 00:39:27;;;;;;;9.98;6.75;;;;;;;7.87;58.20;100998.31;5069085;28;20054;-83
2022/11/29 00:41:57;;;;;;;10.57;6.60;;;;;;;7.82;58.33;100997.81;5049957;28;20052;-83
2022/11/29 00:44:27;;;;;;;11.07;7.32;;;;;;;7.81;58.05;100993.31;5055678;28;20506;-84
2022/11/29 00:46:55;;;;;;;10.38;7.60;;;;;;;7.80;58.20;100997.03;5060978;28;20048;-83
2022/11/29 00:49:23;;;;;;;11.35;7.00;;;;;;;7.79;58.38;101001.59;5063892;28;20546;-84
2022/11/29 00:51:51;;;;;;;11.05;7.30;;;;;;;7.77;58.03;101000.84;5052127;28;20062;-85
2022/11/29 00:54:20;;;;;;;12.30;7.93;;;;;;;7.77;58.18;101005.41;5048711;28;20044;-83
2022/11/29 00:56:52;;;;;;;11.43;7.28;;;;;;;7.76;58.42;101009.16;5073468;28;20044;-84
2022/11/29 00:59:20;;;;;;;11.07;6.47;;;;;;;7.73;58.38;101003.94;5072354;28;20037;-83
2022/11/29 01:01:48;;;;;;;11.15;6.78;;;;;;;7.71;58.28;100998.59;5077744;28;20040;-83
2022/11/29 01:04:16;;;;;;;12.30;7.90;;;;;;;7.72;58.40;101007.63;5090276;28;20052;-83
2022/11/29 01:06:44;;;;;;;11.68;7.45;;;;;;;7.70;58.23;100996.84;5075241;28;20056;-83
2022/11/29 01:09:12;;;;;;;10.48;7.07;;;;;;;7.71;58.36;101011.34;5055587;28;20143;-84
2022/11/29 01:11:43;;;;;;;10.50;6.93;;;;;;;7.71;58.74;101005.88;5076753;28;20404;-83
2022/11/29 01:14:13;;;;;;;11.15;6.80;;;;;;;7.72;58.77;101007.63;5055326;28;20047;-84
2022/11/29 01:16:41;;;;;;;11.45;7.28;;;;;;;7.70;58.45;100996.84;5074132;28;20469;-83
2022/11/29 01:19:11;;;;;;;10.98;7.63;;;;;;;7.70;58.24;101005.00;5082684;28;20063;-83
2022/11/29 01:21:40;;;;;;;11.27;7.05;;;;;;;7.71;58.58;101014.06;5076025;28;20391;-83
2022/11/29 01:24:08;;;;;;;12.13;6.72;;;;;;;7.70;58.40;101004.13;5055040;28;20282;-83
2022/11/29 01:26:36;;;;;;;11.45;7.28;;;;;;;7.70;58.17;101007.72;5082221;28;20101;-83
2022/11/29 01:29:07;;;;;;;12.50;7.40;;;;;;;7.70;58.54;101005.00;5024878;28;20049;-83
2022/11/29 01:31:37;;;;;;;10.80;6.63;;;;;;;7.70;58.66;101007.72;5045448;28;20430;-82
2022/11/29 01:34:07;;;;;;;13.10;7.28;;;;;;;7.70;58.53;101009.59;5072405;28;20250;-82
2022/11/29 01:36:35;;;;;;;12.68;8.20;;;;;;;7.69;58.83;101008.72;5056476;28;20144;-84
2022/11/29 01:39:05;;;;;;;12.93;7.93;;;;;;;7.70;58.96;101017.75;5059959;28;20451;-82
2022/11/29 01:41:35;;;;;;;14.32;7.55;;;;;;;7.69;58.35;101011.44;5056038;28;20051;-83
2022/11/29 01:44:06;;;;;;;12.75;8.18;;;;;;;7.71;58.36;101017.66;5072498;28;20056;-83
2022/11/29 01:46:37;;;;;;;11.23;7.82;;;;;;;7.70;58.41;101015.91;5055278;28;20052;-83
2022/11/29 01:49:11;;;;;;;12.95;8.15;;;;;;;7.70;58.44;101015.03;5066325;28;20055;-83
2022/11/29 01:51:43;;;;;;;13.02;7.82;;;;;;;7.70;58.47;101012.31;5050287;28;20076;-84
2022/11/29 01:54:12;;;;;;;12.60;8.38;;;;;;;7.69;58.50;101021.47;5063148;28;20071;-83
2022/11/29 01:56:41;;;;;;;13.35;8.30;;;;;;;7.69;58.61;101021.47;5071840;28;20052;-84
2022/11/29 01:59:15;;;;;;;13.45;7.88;;;;;;;7.70;58.82;101020.47;5075217;28;20040;-83
2022/11/29 02:01:45;;;;;;;12.43;8.10;;;;;;;7.69;58.61;101019.59;5072308;28;20049;-82
2022/11/29 02:04:14;;;;;;;15.10;9.02;;;;;;;7.69;58.89;101026.91;5053146;28;20547;-83
2022/11/29 02:06:43;;;;;;;16.00;9.10;;;;;;;7.71;58.58;101027.69;5055586;28;20098;-84
2022/11/29 02:09:18;;;;;;;16.13;9.23;;;;;;;7.72;59.21;101026.69;5046675;28;20045;-83
2022/11/29 02:12:06;;;;;;;14.05;8.82;;;;;;;7.71;59.38;101027.69;5050117;28;20032;-83
2022/11/29 02:14:57;;;;;;;14.50;9.52;;;;;;;7.72;59.29;101026.69;5068345;28;20052;-83
2022/11/29 02:17:35;;;;;;;17.50;9.77;;;;;;;7.71;59.32;101033.13;5058305;28;20066;-82
2022/11/29 02:20:27;;;;;;;17.38;9.25;;;;;;;7.72;59.01;101032.16;5071000;28;20131;-81
2022/11/29 02:23:01;;;;;;;17.45;10.15;;;;;;;7.72;58.81;101032.16;5064880;28;20048;-82
2022/11/29 02:25:53;;;;;;;16.38;9.88;;;;;;;7.74;59.08;101032.91;5051274;28;20032;-82
2022/11/29 02:28:46;;;;;;;17.35;9.88;;;;;;;7.71;59.13;101042.16;5070725;28;20040;-83
2022/11/29 02:31:54;;;;;;;17.10;9.43;;;;;;;7.72;59.46;101034.88;5078958;28;20047;-82
2022/11/29 02:34:53;;;;;;;17.40;11.05;;;;;;;7.71;59.20;101035.84;5073059;28;20525;-82
2022/11/29 02:37:58;;;;;;;19.80;10.57;;;;;;;7.72;59.15;101034.88;5049432;28;20072;-83
2022/11/29 02:40:42;;;;;;;19.52;10.13;;;;;;;7.74;58.93;101044.69;5050285;28;20036;-83
2022/11/29 02:43:32;;;;;;;21.55;10.98;;;;;;;7.76;59.26;101048.19;5054195;28;20139;-83
2022/11/29 02:46:17;;;;;;;20.90;11.52;;;;;;;7.77;58.98;101043.56;5034149;28;20048;-82
2022/11/29 02:48:55;;;;;;;21.65;11.90;;;;;;;7.77;59.42;101044.44;5054329;28;20444;-84
2022/11/29 02:51:38;;;;;;;21.55;12.30;;;;;;;7.79;59.35;101047.06;5055018;28;20517;-83
2022/11/29 02:54:15;;;;;;;23.50;12.55;;;;;;;7.78;58.95;101048.03;5053070;28;20049;-83
2022/11/29 02:56:51;;;;;;;23.75;12.27;;;;;;;7.79;58.78;101047.06;5062570;28;20064;-84
2022/11/29 02:59:33;;;;;;;20.38;11.50;;;;;;;7.82;59.09;101046.84;5064105;28;20047;-83
2022/11/29 03:02:11;;;;;;;23.60;12.20;;;;;;;7.79;59.38;101050.66;5054996;28;20040;-83
2022/11/29 03:04:47;;;;;;;20.48;11.77;;;;;;;7.82;59.09;101055.03;5055744;28;20059;-83
2022/11/29 03:07:25;;;;;;;24.67;13.02;;;;;;;7.83;59.03;101057.63;5054983;28;20049;-84
2022/11/29 03:10:01;;;;;;;20.85;12.05;;;;;;;7.83;59.18;101056.75;5070471;28;20052;-83
2022/11/29 03:12:35;;;;;;;24.40;12.85;;;;;;;7.84;59.06;101058.50;5068381;28;20599;-83
2022/11/29 03:15:19;;;;;;;23.58;12.85;;;;;;;7.86;59.04;101064.69;5051193;28;20101;-83
2022/11/29 03:17:55;;;;;;;;;;;;;;;7.60;60.09;101063.00;5056536;28;20062;-82
2022/11/29 03:20:35;;;;;;;19.35;10.75;;;;;;;7.83;59.24;101064.94;5053988;28;19935;-83
2022/11/29 03:23:17;;;;;;;25.30;12.88;;;;;;;7.86;59.29;101068.28;5063599;28;20090;-83
2022/11/29 03:25:53;;;;;;;23.58;13.15;;;;;;;7.85;58.83;101073.84;5055423;28;20042;-84
2022/11/29 03:28:26;;;;;;;24.30;13.02;;;;;;;7.87;58.79;101082.78;5056051;28;20064;-83
2022/11/29 03:31:04;;;;;;;25.58;12.85;;;;;;;7.86;58.88;101073.75;5053276;28;20056;-84
2022/11/29 03:33:51;;;;;;;24.98;12.95;;;;;;;7.87;59.74;101077.34;5049793;28;20045;-83
2022/11/29 03:36:29;;;;;;;25.08;13.60;;;;;;;7.88;58.96;101084.53;5053341;28;20671;-83
2022/11/29 03:39:03;;;;;;;24.67;13.40;;;;;;;7.88;58.88;101089.97;5049314;28;20049;-83
2022/11/29 03:41:40;;;;;;;25.95;13.23;;;;;;;7.88;59.00;101085.41;5054334;28;20041;-82
2022/11/29 03:44:13;;;;;;;25.13;13.90;;;;;;;7.89;59.09;101089.00;5068662;28;20048;-83
2022/11/29 03:46:43;;;;;;;;;;;;;;;7.64;60.01;101089.91;5067427;28;20131;-83
2022/11/29 03:49:21;;;;;;;21.50;11.55;;;;;;;7.85;59.46;101090.19;5050647;28;20393;-83
2022/11/29 03:51:59;;;;;;;28.77;13.38;;;;;;;7.87;59.08;101083.66;5069510;28;20068;-84
2022/11/29 03:54:32;;;;;;;31.00;14.68;;;;;;;7.88;58.88;101089.97;5044304;28;20039;-83
2022/11/29 03:57:01;;;;;;;28.80;13.88;;;;;;;7.87;58.63;101094.56;5074962;28;20036;-83
2022/11/29 03:59:52;;;;;;;28.70;14.98;;;;;;;7.89;59.32;101089.00;5069692;28;20040;-83
2022/11/29 04:02:55;;;;;;;34.03;14.73;;;;;;;7.88;59.58;101092.72;5072651;23;20134;-80
2022/11/29 04:05:53;;;;;;;30.88;14.75;;;;;;;7.85;59.48;101093.78;5050583;28;20059;-80
2022/11/29 04:08:45;;;;;;;28.30;13.40;;;;;;;7.88;59.18;101109.06;5087040;28;20048;-79
2022/11/29 04:11:54;;;;;;;32.08;15.48;;;;;;;7.88;59.35;101098.16;5085503;28;20074;-80
2022/11/29 04:14:33;;;;;;;32.45;14.73;;;;;;;7.89;59.44;101106.22;5059144;28;20127;-79
2022/11/29 04:17:21;;;;;;;31.48;15.00;;;;;;;7.90;59.57;101104.38;5092643;28;20051;-80
2022/11/29 04:20:03;;;;;;;39.85;15.93;;;;;;;7.91;59.57;101112.44;5094257;28;20036;-80
2022/11/29 04:22:59;;;;;;;33.67;14.75;;;;;;;7.90;59.48;101116.16;5086873;28;20088;-80
2022/11/29 04:25:44;;;;;;;33.85;14.85;;;;;;;7.91;59.23;101114.31;5045785;28;20079;-80
2022/11/29 04:28:58;;;;;;;33.08;15.68;;;;;;;7.91;59.29;101117.03;5091623;28;20486;-80
2022/11/29 04:31:37;;;;;;;36.40;15.38;;;;;;;7.89;59.09;101117.13;5088453;28;20043;-81
2022/11/29 04:34:32;;;;;;;35.70;15.10;;;;;;;7.92;59.25;101122.38;5049338;28;20052;-80
2022/11/29 04:37:18;;;;;;;35.45;15.65;;;;;;;7.92;59.35;101124.22;5102923;28;20044;-80
2022/11/29 04:40:03;;;;;;;34.67;15.43;;;;;;;7.93;59.52;101124.09;5094006;28;20032;-80
2022/11/29 04:43:05;;;;;;;36.97;17.05;;;;;;;7.92;59.72;101113.31;5091568;28;20307;-81
2022/11/29 04:46:10;;;;;;;30.38;14.48;;;;;;;7.90;59.35;101118.00;5093772;28;20235;-80
2022/11/29 04:49:10;;;;;;;34.70;15.57;;;;;;;7.93;59.47;101121.38;5072537;28;20064;-80
2022/11/29 04:51:55;;;;;;;33.08;13.45;;;;;;;7.95;59.17;101132.16;5089567;28;20044;-80
2022/11/29 04:54:34;;;;;;;38.03;16.08;;;;;;;7.96;59.17;101142.97;5043651;28;20033;-80
2022/11/29 04:57:08;;;;;;;40.63;16.40;;;;;;;7.96;59.21;101139.34;5111141;28;20048;-79
2022/11/29 04:59:44;;;;;;;37.13;16.63;;;;;;;7.98;59.07;101150.16;5087061;28;20055;-80
2022/11/29 05:02:28;;;;;;;36.72;15.02;;;;;;;7.99;59.41;101146.44;5085707;28;20055;-80
2022/11/29 05:05:03;;;;;;;41.35;15.85;;;;;;;7.98;58.85;101150.16;5073682;28;20463;-81
2022/11/29 05:07:43;;;;;;;39.53;16.67;;;;;;;8.00;59.04;101159.09;5098333;28;20541;-81
2022/11/29 05:10:24;;;;;;;36.63;16.05;;;;;;;8.00;59.31;101162.69;5082246;28;20498;-81
2022/11/29 05:13:01;;;;;;;36.25;16.60;;;;;;;8.01;59.32;101163.56;5095957;28;20094;-81
2022/11/29 05:15:58;;;;;;;41.95;17.42;;;;;;;8.01;59.17;101161.72;5081549;28;20040;-81
2022/11/29 05:18:54;;;;;;;41.58;16.85;;;;;;;8.00;59.53;101165.41;5094256;28;20059;-81
2022/11/29 05:21:30;;;;;;;38.15;15.93;;;;;;;7.99;59.39;101169.13;5075305;28;20047;-81
2022/11/29 05:24:07;;;;;;;41.03;17.10;;;;;;;8.02;59.08;101170.75;5088499;28;20044;-80
2022/11/29 05:26:43;;;;;;;38.83;16.67;;;;;;;8.03;59.01;101172.50;5097401;28;20117;-81
2022/11/29 05:29:21;;;;;;;39.75;18.38;;;;;;;8.01;58.87;101172.63;5043923;28;20482;-81
2022/11/29 05:32:03;;;;;;;38.63;16.48;;;;;;;8.03;59.26;101178.81;5073929;28;20508;-80
2022/11/29 05:35:00;;;;;;;41.30;16.98;;;;;;;8.00;59.39;101180.91;5084368;28;20052;-81
2022/11/29 05:37:52;;;;;;;38.55;16.63;;;;;;;8.03;59.44;101177.94;5099524;28;20063;-80
2022/11/29 05:40:40;;;;;;;42.20;18.05;;;;;;;8.01;59.64;101186.25;5066124;28;20036;-80
2022/11/29 05:43:33;;;;;;;41.35;17.38;;;;;;;8.03;59.16;101188.84;5091983;28;20095;-81
2022/11/29 05:46:08;;;;;;;43.08;17.45;;;;;;;8.03;59.06;101194.28;5071704;28;20040;-81
2022/11/29 05:48:44;;;;;;;40.00;17.45;;;;;;;8.04;59.14;101199.63;5089483;28;20048;-81
2022/11/29 05:51:22;;;;;;;44.53;18.25;;;;;;;8.05;59.35;101200.50;5076013;28;20055;-81
2022/11/29 05:54:00;;;;;;;41.05;18.20;;;;;;;8.05;58.90;101200.50;5076244;28;20058;-81
2022/11/29 05:56:42;;;;;;;40.67;17.73;;;;;;;8.04;59.04;101205.09;5070949;28;20452;-81
2022/11/29 05:59:15;;;;;;;39.70;17.30;;;;;;;8.01;58.87;101202.59;5089066;28;20093;-81
2022/11/29 06:01:52;;;;;;;41.58;17.55;;;;;;;8.04;59.00;101209.66;5092742;28;20105;-80
2022/11/29 06:04:28;;;;;;;40.28;17.67;;;;;;;8.03;58.81;101216.09;5070968;28;20159;-81
2022/11/29 06:07:06;;;;;;;39.47;16.35;;;;;;;8.05;59.08;101222.31;5078583;28;20049;-81
2022/11/29 06:09:43;;;;;;;34.97;15.13;;;;;;;8.03;59.04;101224.28;5093144;28;20066;-80
2022/11/29 06:12:19;;;;;;;34.30;14.65;;;;;;;8.04;59.02;101229.63;5093424;28;20058;-82
2022/11/29 06:15:06;;;;;;;37.28;15.20;;;;;;;8.04;59.03;101239.66;5064908;28;20040;-81
2022/11/29 06:17:47;;;;;;;38.97;16.05;;;;;;;8.04;59.37;101242.38;5093690;28;20140;-82
2022/11/29 06:20:33;;;;;;;34.45;14.52;;;;;;;8.04;59.23;101240.53;5073013;28;20426;-82
2022/11/29 06:23:23;;;;;;;40.90;15.18;;;;;;;8.03;59.16;101241.50;5090542;28;20040;-82
2022/11/29 06:26:08;;;;;;;35.20;14.65;;;;;;;8.02;58.99;101242.47;5067820;28;20044;-82
2022/11/29 06:29:00;;;;;;;32.17;13.85;;;;;;;8.01;59.41;101242.63;5086478;28;20335;-82
2022/11/29 06:31:36;;;;;;;34.05;14.10;;;;;;;8.00;59.20;101252.66;5073533;28;20044;-81
2022/11/29 06:34:11;;;;;;;34.47;14.07;;;;;;;8.02;58.63;101252.50;5088388;28;20056;-81
2022/11/29 06:36:45;;;;;;;35.20;16.20;;;;;;;8.02;58.83;101252.50;5089662;28;20147;-82
2022/11/29 06:39:14;;;;;;;;;;;;;;;7.77;59.76;101250.63;5064337;28;20075;-81
2022/11/29 06:41:43;;;;;;;27.35;12.07;;;;;;;7.95;59.00;101252.94;5072833;28;19927;-82
2022/11/29 06:44:11;;;;;;;33.15;13.20;;;;;;;8.00;58.92;101265.41;5088761;28;20043;-81
2022/11/29 06:46:46;;;;;;;32.40;13.38;;;;;;;8.02;58.88;101260.69;5084962;28;20040;-81
2022/11/29 06:49:22;;;;;;;27.85;12.15;;;;;;;7.99;58.87;101259.06;5088579;28;20101;-81
2022/11/29 06:52:03;;;;;;;33.13;14.00;;;;;;;8.02;58.87;101263.41;5086017;28;20455;-81
2022/11/29 06:54:48;;;;;;;34.45;14.25;;;;;;;8.00;59.21;101266.28;5072160;28;20498;-82
2022/11/29 06:57:25;;;;;;;31.10;13.95;;;;;;;7.99;59.08;101267.25;5073785;28;20165;-82
2022/11/29 07:00:05;;;;;;;34.15;14.27;;;;;;;8.00;58.76;101270.84;5083857;28;20131;-81
2022/11/29 07:02:52;;;;;;;32.80;14.35;;;;;;;8.01;58.92;101275.31;5076289;28;20131;-81
2022/11/29 07:05:25;;;;;;;31.75;13.57;;;;;;;8.00;58.93;101276.31;5073150;28;20079;-79
2022/11/29 07:07:56;;;;;;;29.70;13.18;;;;;;;7.99;58.72;101274.56;5074825;28;20448;-78
2022/11/29 07:10:27;;;;;;;28.73;12.48;;;;;;;7.99;58.85;101280.00;5093758;28;20048;-81
2022/11/29 07:12:56;;;;;;;38.90;14.10;;;;;;;7.98;58.81;101283.69;5072904;28;20050;-81
2022/11/29 07:15:24;;;;;;;34.45;14.57;;;;;;;7.99;58.69;101280.00;5086828;28;20033;-81
2022/11/29 07:18:02;;;;;;;35.13;14.00;;;;;;;8.00;59.03;101285.34;5088693;28;20059;-81
2022/11/29 07:20:39;;;;;;;33.95;13.13;;;;;;;8.00;59.25;101290.81;5072243;28;20040;-81
2022/11/29 07:23:18;;;;;;;32.85;14.00;;;;;;;8.00;58.93;101293.53;5086028;28;20145;-80
2022/11/29 07:25:54;;;;;;;35.45;13.32;;;;;;;8.00;58.97;101289.94;5083505;28;20075;-80
2022/11/29 07:28:35;;;;;;;34.10;14.20;;;;;;;8.01;58.81;101298.00;5083144;28;20139;-80
2022/11/29 07:31:09;;;;;;;35.10;15.10;;;;;;;7.99;58.85;101297.22;5088776;28;20044;-80
2022/11/29 07:33:52;;;;;;;36.88;14.45;;;;;;;8.01;58.96;101306.19;5069365;28;20059;-80
2022/11/29 07:36:32;;;;;;;31.70;14.18;;;;;;;8.00;59.14;101312.59;5075582;28;20048;-80
2022/11/29 07:39:16;;;;;;;31.85;13.38;;;;;;;8.01;58.89;101317.09;5088163;28;20079;-81
2022/11/29 07:41:53;;;;;;;33.78;14.63;;;;;;;8.00;58.69;101315.34;5066886;28;20040;-81
2022/11/29 07:44:27;;;;;;;36.20;15.88;;;;;;;8.00;58.84;101317.19;5077445;28;20402;-81
2022/11/29 07:46:55;;;;;;;34.28;15.18;;;;;;;7.99;58.79;101320.88;5069213;28;20055;-81
2022/11/29 07:49:23;;;;;;;27.88;13.23;;;;;;;8.00;58.93;101317.19;5089142;28;20040;-81
2022/11/29 07:51:53;;;;;;;31.17;12.85;;;;;;;7.99;58.83;101321.75;5091949;28;20047;-81
2022/11/29 07:54:21;;;;;;;27.85;13.85;;;;;;;8.00;58.40;101325.38;5069635;28;20044;-80
2022/11/29 07:56:51;;;;;;;33.45;13.15;;;;;;;8.00;58.61;101326.25;5091672;28;20045;-80
2022/11/29 07:59:19;;;;;;;30.55;12.95;;;;;;;7.99;58.63;101332.66;5087813;28;20052;-80
2022/11/29 08:01:47;;;;;;;27.65;12.60;;;;;;;7.99;58.53;101338.13;5090777;28;20047;-79
2022/11/29 08:04:15;;;;;;;29.45;12.75;;;;;;;8.00;58.55;101331.69;5088872;28;20109;-81
2022/11/29 08:06:43;;;;;;;31.33;12.77;;;;;;;8.00;58.67;101328.97;5087554;28;20044;-82
2022/11/29 08:09:11;;;;;;;30.77;12.68;;;;;;;8.00;58.32;101342.59;5087072;28;20591;-81
2022/11/29 08:11:39;;;;;;;30.15;12.60;;;;;;;8.01;58.60;101341.63;5071057;28;20486;-81
2022/11/29 08:14:09;;;;;;;30.13;13.23;;;;;;;8.00;58.27;101344.44;5087457;28;20097;-81
2022/11/29 08:16:37;;;;;;;37.30;14.43;;;;;;;7.99;58.42;101340.84;5067507;28;20094;-82
2022/11/29 08:19:05;;;;;;;31.35;13.45;;;;;;;8.00;58.53;101344.44;5084460;28;20048;-83
2022/11/29 08:21:33;;;;;;;38.03;15.25;;;;;;;7.99;58.14;101345.41;5065842;28;20135;-81
2022/11/29 08:24:01;;;;;;;37.45;14.77;;;;;;;7.99;58.44;101343.56;5090819;28;20044;-81
2022/11/29 08:26:29;;;;;;;35.58;15.15;;;;;;;8.00;58.64;101356.22;5090002;28;20191;-81
2022/11/29 08:28:58;;;;;;;33.63;14.45;;;;;;;8.00;58.53;101353.50;5085624;28;20140;-81
2022/11/29 08:31:28;;;;;;;35.72;15.93;;;;;;;8.01;58.30;101352.53;5066071;28;20524;-81
2022/11/29 08:33:55;;;;;;;39.45;16.10;;;;;;;8.00;58.21;101356.22;5079346;28;20051;-81
2022/11/29 08:36:23;;;;;;;41.40;16.65;;;;;;;7.99;58.55;101357.19;5087764;28;20036;-81
2022/11/29 08:38:51;;;;;;;37.47;16.08;;;;;;;8.00;58.48;101358.94;5082921;28;20052;-80
2022/11/29 08:41:30;;;;;;;32.95;14.02;;;;;;;8.00;58.39;101366.25;5087918;28;20457;-80
2022/11/29 08:43:58;;;;;;;33.10;14.38;;;;;;;8.00;58.35;101366.25;5070496;28;20517;-81
2022/11/29 08:49:12;;;;;;;37.08;14.75;;;;;;;7.95;58.27;101370.16;5086334;28;20082;-80
2022/11/29 08:51:40;;;;;;;37.13;14.55;;;;;;;7.98;58.48;101371.81;5089592;28;20572;-81
2022/11/29 08:54:07;;;;;;;33.42;15.30;;;;;;;7.98;58.54;101379.97;5064378;28;20121;-81
2022/11/29 08:56:37;;;;;;;37.75;15.60;;;;;;;7.99;58.11;101376.28;5090851;28;20032;-81
2022/11/29 08:59:24;;;;;;;36.92;15.43;;;;;;;7.97;58.12;101375.50;5092474;28;20155;-80
2022/11/29 09:01:54;;;;;;;36.97;15.27;;;;;;;7.99;58.38;101376.28;5068991;28;20123;-80
2022/11/29 09:04:21;;;;;;;39.03;16.75;;;;;;;7.99;58.12;101386.31;5081884;28;20070;-80
2022/11/29 09:06:49;;;;;;;36.20;16.08;;;;;;;7.99;58.49;101387.19;5068747;28;20503;-80
2022/11/29 09:09:18;;;;;;;40.03;16.50;;;;;;;8.00;58.65;101393.50;5060304;28;20079;-80
2022/11/29 09:11:46;;;;;;;36.40;16.00;;;;;;;7.99;58.32;101398.09;5082537;28;20093;-80
2022/11/29 09:14:21;;;;;;;40.47;17.25;;;;;;;8.00;58.31;101397.09;5061312;28;20060;-80
2022/11/29 09:16:51;;;;;;;;;;;;;;;7.76;59.19;101393.31;5084604;28;20116;-79
2022/11/29 09:19:20;;;;;;;34.08;14.55;;;;;;;7.96;58.42;101401.00;5059180;28;19958;-80
2022/11/29 09:21:48;;;;;;;33.40;15.70;;;;;;;7.99;58.52;101410.84;5072775;28;20094;-80
2022/11/29 09:24:19;;;;;;;39.90;17.55;;;;;;;7.99;57.97;101408.97;5070376;28;20097;-80
2022/11/29 09:26:47;;;;;;;36.88;15.80;;;;;;;7.99;58.40;101411.72;5079512;28;20041;-80
2022/11/29 09:29:17;;;;;;;40.35;18.15;;;;;;;8.00;58.14;101421.63;5061366;28;20337;-79
2022/11/29 09:31:45;;;;;;;37.33;16.98;;;;;;;7.99;58.19;101419.88;5072896;28;20616;-80
2022/11/29 09:34:13;;;;;;;37.08;17.20;;;;;;;8.00;58.08;101431.66;5067737;28;20064;-79
2022/11/29 09:36:43;;;;;;;33.80;16.50;;;;;;;8.01;58.27;101426.13;5088557;28;20040;-78
2022/11/29 09:39:12;;;;;;;32.40;16.65;;;;;;;8.00;58.21;101424.38;5063161;28;20442;-79
2022/11/29 09:41:57;;;;;;;41.85;17.48;;;;;;;8.03;58.08;101434.16;5078968;28;20067;-80
2022/11/29 09:44:36;;;;;;;42.20;17.30;;;;;;;8.00;58.20;101432.53;5074762;28;20039;-79
2022/11/29 09:47:16;;;;;;;33.33;17.38;;;;;;;8.00;58.08;101437.13;5093119;28;20085;-80
2022/11/29 09:50:01;;;;;;;33.70;14.43;;;;;;;8.02;58.13;101446.03;5083995;28;20063;-80
2022/11/29 09:52:43;;;;;;;35.45;16.90;;;;;;;8.02;58.37;101451.50;5084921;28;20154;-82
2022/11/29 09:55:31;;;;;;;38.88;15.90;;;;;;;8.00;58.49;101439.84;5083873;28;20075;-80
2022/11/29 09:58:02;;;;;;;34.80;15.73;;;;;;;8.01;58.06;101445.19;5088826;28;20105;-81
2022/11/29 10:00:45;;;;;;;35.85;16.17;;;;;;;8.02;58.38;101455.09;5071835;28;20048;-79
2022/11/29 10:03:22;;;;;;;39.17;18.55;;;;;;;8.02;58.17;101444.19;5107091;23;20044;-84
2022/11/29 10:05:56;;;;;;;37.33;17.42;;;;;;;8.04;57.99;101452.28;5083836;28;20301;-84
2022/11/29 10:08:27;;;;;;;;;;;;;;;7.79;59.14;101450.31;5103529;28;20056;-85
2022/11/29 10:11:13;;;;;;;37.67;15.82;;;;;;;8.01;58.18;101447.91;5116767;28;19920;-82
2022/11/29 10:13:45;;;;;;;33.65;14.90;;;;;;;8.05;58.11;101452.16;5076055;28;20510;-85
2022/11/29 10:16:21;;;;;;;32.85;14.38;;;;;;;8.06;58.38;101445.75;5062918;28;20116;-83
2022/11/29 10:18:55;;;;;;;35.67;14.57;;;;;;;8.07;58.06;101444.78;5063969;28;20139;-84
2022/11/29 10:21:29;;;;;;;33.88;14.80;;;;;;;8.07;58.27;101441.16;5093640;28;20036;-85
2022/11/29 10:24:03;;;;;;;33.65;14.77;;;;;;;8.09;58.18;101448.28;5058183;28;20040;-84
2022/11/29 10:26:33;;;;;;;36.03;14.60;;;;;;;8.10;57.96;101458.19;5073149;28;20094;-85
2022/11/29 10:29:02;;;;;;;31.02;13.90;;;;;;;8.11;58.19;101456.31;5067161;28;20041;-83
2022/11/29 10:31:34;;;;;;;28.35;12.77;;;;;;;8.12;58.04;101450.78;5072329;28;20048;-84
2022/11/29 10:34:12;;;;;;;29.05;13.40;;;;;;;8.12;58.61;101442.59;5052494;28;20459;-84
2022/11/29 10:36:43;;;;;;;28.48;12.45;;;;;;;8.12;58.30;101441.72;5066096;28;20048;-84
2022/11/29 10:39:16;;;;;;;30.88;13.15;;;;;;;8.14;58.19;101443.41;5084247;28;20105;-84
2022/11/29 10:41:43;;;;;;;;;;;;;;;7.88;58.98;101439.69;5084159;28;20621;-83
2022/11/29 10:44:14;;;;;;;27.15;10.52;;;;;;;8.10;58.60;101449.13;5069093;28;20274;-83
2022/11/29 10:46:42;;;;;;;29.38;12.20;;;;;;;8.14;58.39;101450.72;5071132;28;20068;-84
2022/11/29 10:49:15;;;;;;;25.90;11.77;;;;;;;8.15;58.14;101442.44;5069696;28;20037;-84
2022/11/29 10:51:44;;;;;;;26.17;11.65;;;;;;;8.14;58.39;101443.41;5073579;28;20135;-84
2022/11/29 10:54:27;;;;;;;30.05;11.82;;;;;;;8.17;58.43;101445.94;5064245;28;20608;-84
2022/11/29 10:56:57;;;;;;;25.67;11.50;;;;;;;8.16;58.42;101448.75;5066768;28;20422;-84
2022/11/29 10:59:27;;;;;;;29.48;11.77;;;;;;;8.17;58.00;101445.94;5071458;28;20044;-83
2022/11/29 11:01:57;;;;;;;27.95;13.10;;;;;;;8.17;58.14;101448.66;5048494;28;20297;-83
2022/11/29 11:04:29;;;;;;;26.50;11.95;;;;;;;8.19;58.24;101452.13;5055805;28;20040;-84
2022/11/29 11:07:00;;;;;;;29.33;12.20;;;;;;;8.18;58.29;101449.50;5074498;28;20056;-85
2022/11/29 11:09:34;;;;;;;26.58;12.07;;;;;;;8.19;58.46;101449.41;5048839;28;20068;-84
2022/11/29 11:12:05;;;;;;;25.35;12.30;;;;;;;8.21;58.52;101449.31;5056820;28;20048;-85
2022/11/29 11:14:38;;;;;;;25.60;12.63;;;;;;;8.22;57.99;101445.59;5047013;28;20063;-85
2022/11/29 11:17:17;;;;;;;29.42;13.45;;;;;;;8.22;58.36;101448.34;5065389;28;20056;-85
2022/11/29 11:19:55;;;;;;;26.23;12.48;;;;;;;8.24;58.25;101451.84;5069637;28;20044;-85
2022/11/29 11:22:31;;;;;;;24.17;12.52;;;;;;;8.22;58.07;101457.38;5062206;28;20048;-85
2022/11/29 11:25:04;;;;;;;27.73;13.65;;;;;;;8.24;58.29;101458.16;5054622;28;20364;-85
2022/11/29 11:27:38;;;;;;;24.83;12.70;;;;;;;8.24;58.19;101444.53;5054459;28;20048;-86
2022/11/29 11:30:07;;;;;;;;;;;;;;;8.00;59.27;101446.16;5054662;28;20041;-85
2022/11/29 11:32:36;;;;;;;22.42;10.43;;;;;;;8.20;58.18;101453.00;5075928;28;19984;-85
2022/11/29 11:35:22;;;;;;;24.88;12.23;;;;;;;8.24;58.28;101451.84;5059348;28;20048;-83
2022/11/29 11:37:56;;;;;;;25.58;11.27;;;;;;;8.25;58.04;101450.88;5055301;28;20060;-85
2022/11/29 11:40:28;;;;;;;26.33;12.77;;;;;;;8.25;57.96;101456.31;5078777;28;20112;-84
2022/11/29 11:42:59;;;;;;;22.07;11.60;;;;;;;8.23;57.83;101452.81;5077655;28;20414;-85
2022/11/29 11:45:32;;;;;;;21.65;11.07;;;;;;;8.25;58.31;101462.66;5056750;28;20045;-85
2022/11/29 11:48:04;;;;;;;25.40;11.65;;;;;;;8.25;58.20;101461.78;5081839;28;20055;-84
2022/11/29 11:50:36;;;;;;;23.17;11.57;;;;;;;8.23;58.28;101463.72;5066887;28;20047;-85
2022/11/29 11:53:07;;;;;;;21.77;11.65;;;;;;;8.22;58.18;101460.13;5053967;28;20048;-85
2022/11/29 11:55:40;;;;;;;20.83;10.80;;;;;;;8.26;58.04;101461.63;5051751;28;20255;-84
2022/11/29 11:58:17;;;;;;;23.10;11.00;;;;;;;8.26;58.15;101460.75;5070195;28;20094;-85
2022/11/29 12:00:48;;;;;;;25.67;11.52;;;;;;;8.24;57.94;101458.16;5082752;28;20033;-84
2022/11/29 12:03:44;;;;;;;20.45;10.68;;;;;;;8.27;58.06;101457.94;5065075;28;20051;-86
2022/11/29 12:06:27;;;;;;;25.35;11.63;;;;;;;8.27;58.31;101460.66;5058459;28;20045;-87
2022/11/29 12:09:04;;;;;;;23.90;10.73;;;;;;;8.26;57.89;101463.50;5055856;28;20053;-85